Time;durP1;ratioP1;P1;durP2;ratioP2;P2;SDS_P1;SDS_P2;PMS_P1;PMS_P2;Temp;Humidity;BMP_temperature;BMP_pressure;BME280_temperature;BME280_humidity;BME280_pressure;Samples;Min_cycle;Max_cycle;Signal;HPM_P1;HPM_P2
2022/07/19 00:00:14;;;;;;;;;;;;;;;23.09;53.41;101747.53;5063827;28;19927;-58
2022/07/19 00:02:40;;;;;;;;;;;;;;;23.06;53.26;101750.66;5067310;28;19943;-58
2022/07/19 00:05:06;;;;;;;;;;;;;;;23.05;53.37;101743.59;5058149;28;20826;-57
2022/07/19 00:07:31;;;;;;;;;;;;;;;23.03;53.41;101740.31;5057324;28;20444;-58
2022/07/19 00:09:56;;;;;;;;;;;;;;;23.01;53.07;101735.13;5057447;28;19955;-59
2022/07/19 00:12:22;;;;;;;;;;;;;;;23.00;53.11;101735.31;5057279;28;19932;-58
2022/07/19 00:14:47;;;;;;;;;;;;;;;22.95;53.12;101734.13;5057332;28;20318;-57
2022/07/19 00:17:12;;;;;;;;;;;;;;;22.93;53.09;101735.38;5076637;28;19928;-57
2022/07/19 00:19:37;;;;;;;;;;;;;;;22.90;53.13;101742.06;5065372;28;19940;-57
2022/07/19 00:22:03;;;;;;;;;;;;;;;22.87;53.11;101736.28;5078834;28;19917;-58
2022/07/19 00:24:28;;;;;;;;;;;;;;;22.85;52.98;101733.81;5078931;28;19927;-58
2022/07/19 00:26:53;;;;;;;;;;;;;;;22.83;52.97;101731.31;5058519;28;20378;-57
2022/07/19 00:29:20;;;;;;;;;;;;;;;22.81;53.43;101727.19;5056729;28;21578;-59
2022/07/19 00:31:45;;;;;;;;;;;;;;;22.76;53.26;101724.31;5071849;28;20282;-57
2022/07/19 00:34:10;;;;;;;;;;;;;;;22.74;53.15;101729.13;5056002;28;19928;-58
2022/07/19 00:36:36;;;;;;;;;;;;;;;22.70;53.36;101721.44;5057076;28;20772;-58
2022/07/19 00:39:01;;;;;;;;;;;;;;;22.67;53.34;101721.91;5055998;28;19920;-58
2022/07/19 00:41:26;;;;;;;;;;;;;;;22.65;53.42;101715.06;5055718;28;19925;-57
2022/07/19 00:43:51;;;;;;;;;;;;;;;22.63;53.52;101714.44;5054738;28;20010;-58
2022/07/19 00:46:19;;;;;;;;;;;;;;;22.58;53.68;101715.13;5058109;28;20386;-58
2022/07/19 00:48:44;;;;;;;;;;;;;;;22.56;53.49;101714.53;5057509;28;19928;-58
2022/07/19 00:51:10;;;;;;;;;;;;;;;22.55;53.51;101719.09;5056770;28;19979;-58
2022/07/19 00:53:39;;;;;;;;;;;;;;;22.52;53.52;101713.28;5056151;28;20339;-58
2022/07/19 00:56:05;;;;;;;;;;;;;;;22.48;53.35;101718.28;5059917;28;19929;-58
2022/07/19 00:58:31;;;;;;;;;;;;;;;22.46;53.23;101719.56;5054743;28;20007;-57
2022/07/19 01:00:56;;;;;;;;;;;;;;;22.42;53.40;101719.16;5054951;28;19964;-57
2022/07/19 01:03:21;;;;;;;;;;;;;;;22.38;53.29;101718.78;5062098;28;19931;-58
2022/07/19 01:05:48;;;;;;;;;;;;;;;22.36;53.49;101715.47;5057553;28;20051;-57
2022/07/19 01:08:13;;;;;;;;;;;;;;;22.33;53.47;101715.91;5065650;28;19967;-57
2022/07/19 01:10:38;;;;;;;;;;;;;;;22.30;53.52;101710.97;5067102;28;19925;-57
2022/07/19 01:13:03;;;;;;;;;;;;;;;22.27;53.52;101711.38;5057394;28;19925;-59
2022/07/19 01:15:29;;;;;;;;;;;;;;;22.23;53.61;101718.25;5055081;28;19963;-58
2022/07/19 01:17:55;;;;;;;;;;;;;;;22.19;53.31;101708.97;5055622;28;20271;-58
2022/07/19 01:20:21;;;;;;;;;;;;;;;22.15;53.70;101714.78;5059759;28;20023;-59
2022/07/19 01:22:47;;;;;;;;;;;;;;;22.12;53.71;101717.09;5054256;28;19955;-57
2022/07/19 01:25:12;;;;;;;;;;;;;;;22.08;53.93;101714.00;5057899;28;19928;-57
2022/07/19 01:27:40;;;;;;;;;;;;;;;22.06;54.13;101709.88;5056559;28;20019;-58
2022/07/19 01:30:15;;;;;;;;;;;;;;;22.03;54.15;101716.53;5057378;28;19920;-57
2022/07/19 01:32:40;;;;;;;;;;;;;;;21.99;54.26;101710.72;5061888;28;19924;-57
2022/07/19 01:35:07;;;;;;;;;;;;;;;21.97;54.09;101718.22;5054001;28;19935;-57
2022/07/19 01:37:32;;;;;;;;;;;;;;;21.97;53.97;101717.41;5065195;28;19927;-58
2022/07/19 01:39:58;;;;;;;;;;;;;;;21.94;54.16;101717.84;5070169;28;19928;-58
2022/07/19 01:42:23;;;;;;;;;;;;;;;21.92;54.16;101715.34;5068296;28;19920;-58
2022/07/19 01:44:49;;;;;;;;;;;;;;;21.89;53.99;101711.22;5076066;28;20267;-58
2022/07/19 01:47:14;;;;;;;;;;;;;;;21.87;54.10;101713.28;5064078;28;19921;-57
2022/07/19 01:49:39;;;;;;;;;;;;;;;21.82;54.21;101710.44;5073431;28;19920;-57
2022/07/19 01:52:04;;;;;;;;;;;;;;;21.79;54.32;101716.25;5069677;28;19944;-57
2022/07/19 01:54:29;;;;;;;;;;;;;;;21.75;54.31;101715.00;5076122;28;19966;-57
2022/07/19 01:56:54;;;;;;;;;;;;;;;21.72;54.37;101715.44;5061404;28;19981;-57
2022/07/19 01:59:20;;;;;;;;;;;;;;;21.68;54.55;101714.19;5053790;28;19928;-58
2022/07/19 02:01:45;;;;;;;;;;;;;;;21.65;54.67;101712.75;5057240;28;19928;-58
2022/07/19 02:04:10;;;;;;;;;;;;;;;21.62;54.44;101705.91;5070596;28;20392;-57
2022/07/19 02:06:36;;;;;;;;;;;;;;;21.59;54.35;101711.75;5055002;28;19931;-58
2022/07/19 02:09:01;;;;;;;;;;;;;;;21.55;54.47;101707.81;5053450;28;19928;-57
2022/07/19 02:11:35;;;;;;;;;;;;;;;21.52;54.66;101704.72;5053174;28;20023;-58
2022/07/19 02:14:01;;;;;;;;;;;;;;;21.47;54.56;101708.06;5061005;28;19966;-58
2022/07/19 02:16:26;;;;;;;;;;;;;;;21.45;54.53;101704.72;5069468;28;19924;-58
2022/07/19 02:18:51;;;;;;;;;;;;;;;21.41;54.47;101703.50;5059380;28;20499;-58
2022/07/19 02:21:17;;;;;;;;;;;;;;;21.39;54.40;101694.78;5057507;28;19967;-58
2022/07/19 02:23:42;;;;;;;;;;;;;;;21.36;54.67;101696.03;5059847;28;20021;-57
2022/07/19 02:26:08;;;;;;;;;;;;;;;21.33;54.65;101701.88;5065787;28;20537;-58
2022/07/19 02:28:33;;;;;;;;;;;;;;;21.28;54.75;101693.59;5062377;28;19986;-57
2022/07/19 02:30:58;;;;;;;;;;;;;;;21.25;54.97;101696.72;5056079;28;19925;-59
2022/07/19 02:33:23;;;;;;;;;;;;;;;21.19;54.99;101691.13;5052906;28;20009;-59
2022/07/19 02:35:48;;;;;;;;;;;;;;;21.16;55.42;101693.44;5055425;28;19928;-58
2022/07/19 02:38:14;;;;;;;;;;;;;;;21.14;55.17;101684.72;5053201;28;20004;-57
2022/07/19 02:40:39;;;;;;;;;;;;;;;21.09;55.18;101679.97;5052920;28;19925;-57
2022/07/19 02:43:04;;;;;;;;;;;;;;;21.06;55.25;101689.28;5057429;28;19959;-57
2022/07/19 02:45:29;;;;;;;;;;;;;;;21.06;55.33;101681.22;5038398;28;19938;-58
2022/07/19 02:47:54;;;;;;;;;;;;;;;21.04;55.30;101683.28;5058681;28;19921;-57
2022/07/19 02:50:19;;;;;;;;;;;;;;;21.01;55.52;101683.69;5056506;28;19928;-58
2022/07/19 02:52:45;;;;;;;;;;;;;;;20.99;55.19;101685.78;5055935;28;20248;-57
2022/07/19 02:55:10;;;;;;;;;;;;;;;20.96;55.14;101688.91;5068288;28;20007;-57
2022/07/19 02:57:35;;;;;;;;;;;;;;;20.94;55.38;101685.59;5053331;28;19928;-58
2022/07/19 03:00:00;;;;;;;;;;;;;;;20.90;55.57;101681.66;5054769;28;19921;-58
2022/07/19 03:02:25;;;;;;;;;;;;;;;20.88;55.61;101681.03;5054133;28;20399;-60
2022/07/19 03:04:51;;;;;;;;;;;;;;;20.87;55.57;101687.47;5066870;28;19928;-58
2022/07/19 03:07:16;;;;;;;;;;;;;;;20.83;56.01;101679.75;5055674;28;19963;-58
2022/07/19 03:09:41;;;;;;;;;;;;;;;20.79;55.79;101686.63;5061371;28;20462;-57
2022/07/19 03:12:06;;;;;;;;;;;;;;;20.76;55.87;101676.25;5054747;28;20446;-59
2022/07/19 03:14:32;;;;;;;;;;;;;;;20.74;55.76;101672.94;5054079;28;19974;-58
2022/07/19 03:16:57;;;;;;;;;;;;;;;20.73;55.91;101674.00;5054219;28;20318;-57
2022/07/19 03:19:25;;;;;;;;;;;;;;;20.71;55.98;101670.66;5051701;28;19920;-58
2022/07/19 03:21:50;;;;;;;;;;;;;;;20.69;56.13;101664.66;5057147;28;19971;-58
2022/07/19 03:24:15;;;;;;;;;;;;;;;20.65;55.74;101668.81;5058101;28;20321;-58
2022/07/19 03:26:40;;;;;;;;;;;;;;;20.60;56.02;101660.50;5053636;28;20520;-59
2022/07/19 03:29:05;;;;;;;;;;;;;;;20.53;56.04;101665.94;5057523;28;20487;-57
2022/07/19 03:31:30;;;;;;;;;;;;;;;20.47;56.28;101659.50;5064538;28;19921;-58
2022/07/19 03:33:56;;;;;;;;;;;;;;;20.41;56.46;101658.47;5060863;28;19921;-58
2022/07/19 03:36:21;;;;;;;;;;;;;;;20.39;56.53;101659.72;5053875;28;20286;-58
2022/07/19 03:38:46;;;;;;;;;;;;;;;20.35;56.68;101664.69;5056766;28;19928;-57
2022/07/19 03:41:11;;;;;;;;;;;;;;;20.34;56.69;101662.19;5053754;28;19927;-58
2022/07/19 03:43:37;;;;;;;;;;;;;;;20.35;56.66;101666.53;5055073;28;19925;-59
2022/07/19 03:46:02;;;;;;;;;;;;;;;20.35;56.62;101666.53;5051697;28;20364;-58
2022/07/19 03:48:27;;;;;;;;;;;;;;;20.34;56.62;101659.50;5052702;28;19924;-58
2022/07/19 03:50:52;;;;;;;;;;;;;;;20.34;56.63;101656.81;5054764;28;20458;-59
2022/07/19 03:53:18;;;;;;;;;;;;;;;20.31;56.67;101668.00;5060730;28;19928;-58
2022/07/19 03:55:43;;;;;;;;;;;;;;;20.30;56.72;101661.78;5055649;28;20341;-57
2022/07/19 03:58:08;;;;;;;;;;;;;;;20.31;56.77;101670.69;5078298;28;19970;-58
2022/07/19 04:00:33;;;;;;;;;;;;;;;20.27;56.81;101668.41;5057120;28;19928;-58
2022/07/19 04:02:59;;;;;;;;;;;;;;;20.27;56.85;101668.41;5059632;28;19920;-57
2022/07/19 04:05:24;;;;;;;;;;;;;;;20.26;56.74;101665.91;5055726;28;19925;-58
2022/07/19 04:07:49;;;;;;;;;;;;;;;20.25;56.92;101675.88;5058560;28;19930;-58
2022/07/19 04:10:14;;;;;;;;;;;;;;;20.22;57.13;101670.88;5055572;28;19924;-58
2022/07/19 04:12:40;;;;;;;;;;;;;;;20.21;56.89;101671.09;5056105;28;19928;-58
2022/07/19 04:15:07;;;;;;;;;;;;;;;20.19;57.05;101668.63;5057763;28;19924;-58
2022/07/19 04:17:32;;;;;;;;;;;;;;;20.18;56.90;101669.63;5056783;28;20363;-57
2022/07/19 04:19:57;;;;;;;;;;;;;;;20.18;57.15;101664.25;5058163;28;19966;-58
2022/07/19 04:22:23;;;;;;;;;;;;;;;20.18;57.24;101669.63;5057336;28;19924;-59
2022/07/19 04:24:49;;;;;;;;;;;;;;;20.17;57.22;101665.28;5057953;28;19978;-57
2022/07/19 04:27:14;;;;;;;;;;;;;;;20.16;57.17;101671.72;5061661;28;19924;-58
2022/07/19 04:29:39;;;;;;;;;;;;;;;20.13;57.53;101662.16;5056569;28;20342;-58
2022/07/19 04:32:04;;;;;;;;;;;;;;;20.13;57.44;101667.56;5056617;28;19932;-57
2022/07/19 04:34:29;;;;;;;;;;;;;;;20.13;57.48;101672.13;5060622;28;20011;-57
2022/07/19 04:36:55;;;;;;;;;;;;;;;20.14;57.36;101665.72;5059453;28;20428;-57
2022/07/19 04:39:20;;;;;;;;;;;;;;;20.11;57.58;101664.25;5060625;28;19935;-58
2022/07/19 04:41:45;;;;;;;;;;;;;;;20.11;57.58;101671.50;5053849;28;20011;-58
2022/07/19 04:44:10;;;;;;;;;;;;;;;20.11;57.60;101668.78;5057693;28;19927;-59
2022/07/19 04:46:35;;;;;;;;;;;;;;;20.12;57.84;101665.91;5057640;28;19958;-59
2022/07/19 04:49:00;;;;;;;;;;;;;;;20.13;57.38;101666.75;5059342;28;19928;-57
2022/07/19 04:51:26;;;;;;;;;;;;;;;20.13;57.51;101677.53;5064659;28;19924;-57
2022/07/19 04:53:51;;;;;;;;;;;;;;;20.16;57.60;101674.41;5075925;28;19935;-57
2022/07/19 04:56:16;;;;;;;;;;;;;;;20.18;57.64;101674.19;5071844;28;20010;-58
2022/07/19 04:58:41;;;;;;;;;;;;;;;20.20;57.72;101670.28;5064703;28;19921;-57
2022/07/19 05:01:07;;;;;;;;;;;;;;;20.21;57.68;101663.84;5067605;28;19967;-57
2022/07/19 05:03:32;;;;;;;;;;;;;;;20.25;57.66;101664.25;5061863;28;19970;-57
2022/07/19 05:05:57;;;;;;;;;;;;;;;20.27;57.83;101665.72;5073352;28;19920;-58
2022/07/19 05:08:22;;;;;;;;;;;;;;;20.32;57.75;101661.59;5069611;28;19998;-58
2022/07/19 05:10:48;;;;;;;;;;;;;;;20.33;57.86;101655.16;5062617;28;19982;-57
2022/07/19 05:13:13;;;;;;;;;;;;;;;20.36;57.73;101660.94;5063245;28;20298;-57
2022/07/19 05:15:38;;;;;;;;;;;;;;;20.39;57.84;101654.31;5061323;28;19925;-57
2022/07/19 05:18:03;;;;;;;;;;;;;;;20.43;57.63;101660.97;5065589;28;19925;-59
2022/07/19 05:20:28;;;;;;;;;;;;;;;20.45;57.73;101658.88;5061245;28;20370;-58
2022/07/19 05:22:54;;;;;;;;;;;;;;;20.48;57.60;101660.34;5055926;28;19935;-58
2022/07/19 05:25:19;;;;;;;;;;;;;;;20.53;57.34;101655.16;5064943;28;19990;-58
2022/07/19 05:27:44;;;;;;;;;;;;;;;20.56;57.16;101660.94;5057299;28;20442;-58
2022/07/19 05:30:10;;;;;;;;;;;;;;;20.59;57.38;101658.88;5062103;28;19964;-58
2022/07/19 05:32:35;;;;;;;;;;;;;;;20.64;57.52;101661.75;5053868;28;20003;-59
2022/07/19 05:35:01;;;;;;;;;;;;;;;20.67;57.24;101666.75;5059806;28;19974;-58
2022/07/19 05:37:26;;;;;;;;;;;;;;;20.70;57.36;101669.84;5057170;28;19960;-58
2022/07/19 05:39:51;;;;;;;;;;;;;;;20.75;57.50;101684.53;5079857;28;19927;-58
2022/07/19 05:42:16;;;;;;;;;;;;;;;20.79;57.49;101683.94;5062417;28;19939;-58
2022/07/19 05:44:41;;;;;;;;;;;;;;;20.82;57.54;101686.19;5063234;28;19920;-58
2022/07/19 05:47:06;;;;;;;;;;;;;;;20.87;58.52;101676.69;5064044;28;20008;-57
2022/07/19 05:49:32;;;;;;;;;;;;;;;20.89;58.37;101680.84;5058557;28;19929;-58
2022/07/19 05:51:57;;;;;;;;;;;;;;;20.93;58.29;101683.94;5060825;28;20369;-58
2022/07/19 05:54:22;;;;;;;;;;;;;;;20.96;57.80;101680.81;5061274;28;20566;-58
2022/07/19 05:56:47;;;;;;;;;;;;;;;21.03;57.32;101676.25;5058974;28;19924;-58
2022/07/19 05:59:13;;;;;;;;;;;;;;;21.10;57.90;101677.06;5060707;28;19921;-59
2022/07/19 06:01:38;;;;;;;;;;;;;;;21.21;58.44;101677.41;5062482;28;19927;-58
2022/07/19 06:04:03;;;;;;;;;;;;;;;21.29;58.11;101668.28;5059721;28;19921;-57
2022/07/19 06:06:30;;;;;;;;;;;;;;;21.37;58.13;101671.56;5060067;28;20272;-58
2022/07/19 06:08:55;;;;;;;;;;;;;;;21.44;57.73;101670.69;5059889;28;19981;-58
2022/07/19 06:11:22;;;;;;;;;;;;;;;21.53;57.85;101674.81;5061782;28;20015;-58
2022/07/19 06:13:47;;;;;;;;;;;;;;;21.62;57.60;101676.22;5056465;28;19935;-57
2022/07/19 06:16:13;;;;;;;;;;;;;;;21.71;57.24;101676.00;5054923;28;19929;-58
2022/07/19 06:18:38;;;;;;;;;;;;;;;21.80;56.51;101677.41;5053037;28;21259;-59
2022/07/19 06:21:07;;;;;;;;;;;;;;;21.93;56.30;101681.06;5061021;28;20007;-58
2022/07/19 06:23:33;;;;;;;;;;;;;;;22.04;55.54;101674.97;5058297;28;19920;-58
2022/07/19 06:25:58;;;;;;;;;;;;;;;22.16;55.69;101675.09;5057170;28;19970;-58
2022/07/19 06:28:24;;;;;;;;;;;;;;;22.28;55.68;101680.63;5060722;28;20281;-58
2022/07/19 06:30:49;;;;;;;;;;;;;;;22.36;55.57;101672.25;5067903;28;20306;-58
2022/07/19 06:33:14;;;;;;;;;;;;;;;22.48;55.46;101679.63;5062093;28;19924;-59
2022/07/19 06:35:40;;;;;;;;;;;;;;;22.58;55.14;101671.88;5061183;28;20023;-58
2022/07/19 06:38:05;;;;;;;;;;;;;;;22.69;54.89;101676.56;5055629;28;19925;-58
2022/07/19 06:40:31;;;;;;;;;;;;;;;22.80;54.19;101671.47;5057915;28;19927;-58
2022/07/19 06:42:56;;;;;;;;;;;;;;;22.88;52.52;101670.34;5060689;28;19927;-58
2022/07/19 06:45:21;;;;;;;;;;;;;;;22.96;53.71;101673.59;5053758;28;19951;-58
2022/07/19 06:47:46;;;;;;;;;;;;;;;23.06;53.26;101669.53;5053090;28;19936;-58
2022/07/19 06:50:11;;;;;;;;;;;;;;;23.16;53.62;101674.41;5056384;28;19925;-58
2022/07/19 06:52:37;;;;;;;;;;;;;;;23.26;52.89;101674.69;5061080;28;19932;-58
2022/07/19 06:55:02;;;;;;;;;;;;;;;23.35;53.26;101667.13;5056342;28;20051;-59
2022/07/19 06:57:27;;;;;;;;;;;;;;;23.42;52.66;101670.56;5056572;28;19921;-61
2022/07/19 06:59:52;;;;;;;;;;;;;;;23.51;53.19;101665.66;5057918;28;19921;-61
2022/07/19 07:02:18;;;;;;;;;;;;;;;23.58;52.33;101671.81;5064855;28;19970;-61
2022/07/19 07:04:43;;;;;;;;;;;;;;;23.67;52.99;101672.31;5064577;28;20362;-58
2022/07/19 07:07:08;;;;;;;;;;;;;;;23.76;52.23;101676.38;5055798;28;19994;-58
2022/07/19 07:09:33;;;;;;;;;;;;;;;23.86;52.43;101675.81;5063661;28;19920;-63
2022/07/19 07:11:58;;;;;;;;;;;;;;;23.95;52.23;101676.31;5065186;28;20434;-62
2022/07/19 07:14:24;;;;;;;;;;;;;;;24.04;51.75;101672.19;5070866;28;19920;-62
2022/07/19 07:16:49;;;;;;;;;;;;;;;24.15;51.83;101672.50;5062224;28;20421;-63
2022/07/19 07:19:14;;;;;;;;;;;;;;;24.26;51.92;101677.09;5061451;28;19927;-62
2022/07/19 07:21:39;;;;;;;;;;;;;;;24.39;51.38;101669.81;5065968;28;20423;-55
2022/07/19 07:24:05;;;;;;;;;;;;;;;24.52;50.96;101663.34;5076365;28;19927;-57
2022/07/19 07:26:31;;;;;;;;;;;;;;;24.62;51.05;101668.16;5063499;28;19944;-55
2022/07/19 07:28:56;;;;;;;;;;;;;;;24.73;50.27;101664.63;5056874;28;19956;-59
2022/07/19 07:31:21;;;;;;;;;;;;;;;24.81;50.58;101661.56;5077136;28;19951;-56
2022/07/19 07:33:46;;;;;;;;;;;;;;;24.94;50.50;101665.09;5096406;28;19917;-58
2022/07/19 07:36:11;;;;;;;;;;;;;;;25.05;49.82;101661.53;5061082;28;20253;-57
2022/07/19 07:38:36;;;;;;;;;;;;;;;25.16;50.13;101659.84;5080998;28;20003;-56
2022/07/19 07:41:03;;;;;;;;;;;;;;;25.24;49.72;101647.81;5067107;28;20374;-58
2022/07/19 07:43:28;;;;;;;;;;;;;;;25.37;48.61;101652.94;5062293;28;19920;-56
2022/07/19 07:45:53;;;;;;;;;;;;;;;25.49;48.39;101665.66;5072238;28;19986;-58
2022/07/19 07:48:18;;;;;;;;;;;;;;;25.59;47.87;101655.00;5079317;28;20412;-56
2022/07/19 07:50:43;;;;;;;;;;;;;;;25.68;47.53;101655.44;5066556;28;19920;-56
2022/07/19 07:53:09;;;;;;;;;;;;;;;25.77;47.07;101653.16;5069275;28;20481;-59
2022/07/19 07:55:38;;;;;;;;;;;;;;;25.87;47.02;101644.34;5058293;28;19921;-59
2022/07/19 07:58:04;;;;;;;;;;;;;;;25.98;46.47;101645.34;5064849;28;19921;-59
2022/07/19 08:00:29;;;;;;;;;;;;;;;26.11;45.59;101636.88;5068773;28;19927;-59
2022/07/19 08:02:54;;;;;;;;;;;;;;;26.24;46.34;101643.09;5070866;28;19928;-57
2022/07/19 08:05:21;;;;;;;;;;;;;;;26.37;45.13;101640.03;5063229;28;19925;-57
2022/07/19 08:07:46;;;;;;;;;;;;;;;26.50;46.16;101643.47;5067680;28;19920;-56
2022/07/19 08:10:11;;;;;;;;;;;;;;;26.61;45.31;101637.09;5072518;28;20383;-56
2022/07/19 08:12:36;;;;;;;;;;;;;;;26.71;44.37;101631.81;5064773;28;19928;-55
2022/07/19 08:15:02;;;;;;;;;;;;;;;26.82;45.19;101640.06;5066709;28;20453;-57
2022/07/19 08:17:27;;;;;;;;;;;;;;;26.92;41.98;101634.81;5075240;28;19924;-57
2022/07/19 08:19:52;;;;;;;;;;;;;;;27.03;45.64;101633.03;5077877;28;20410;-56
2022/07/19 08:22:18;;;;;;;;;;;;;;;27.15;45.30;101619.28;5064181;28;19924;-57
2022/07/19 08:24:44;;;;;;;;;;;;;;;27.28;44.04;101628.13;5058743;28;20398;-57
2022/07/19 08:27:09;;;;;;;;;;;;;;;27.38;41.83;101628.25;5078401;28;19973;-57
2022/07/19 08:29:34;;;;;;;;;;;;;;;27.47;42.77;101631.34;5067302;28;19974;-57
2022/07/19 08:31:59;;;;;;;;;;;;;;;27.55;43.21;101627.31;5068045;28;19929;-57
2022/07/19 08:34:24;;;;;;;;;;;;;;;27.63;38.63;101626.88;5069351;28;19920;-56
2022/07/19 08:36:50;;;;;;;;;;;;;;;27.75;43.08;101624.81;5070559;28;19931;-56
2022/07/19 08:39:15;;;;;;;;;;;;;;;27.88;40.86;101625.47;5073272;28;19932;-56
2022/07/19 08:41:46;;;;;;;;;;;;;;;27.99;40.27;101621.75;5074240;28;19968;-56
2022/07/19 08:44:12;;;;;;;;;;;;;;;28.10;42.66;101629.97;5078978;28;20428;-56
2022/07/19 08:46:39;;;;;;;;;;;;;;;28.21;41.51;101623.50;5061770;28;19924;-56
2022/07/19 08:49:05;;;;;;;;;;;;;;;28.33;42.28;101626.91;5065686;28;19963;-57
2022/07/19 08:51:31;;;;;;;;;;;;;;;28.43;38.92;101617.97;5069898;28;19960;-57
2022/07/19 08:53:56;;;;;;;;;;;;;;;28.54;40.85;101610.66;5062586;28;19928;-56
2022/07/19 08:59:06;;;;;;;;;;;;;;;28.76;40.19;101606.94;5062948;28;20059;-56
2022/07/19 09:01:31;;;;;;;;;;;;;;;28.89;40.58;101610.28;5060583;28;20047;-57
2022/07/19 09:04:03;;;;;;;;;;;;;;;28.98;40.68;101611.41;5062718;28;20011;-57
2022/07/19 09:06:36;;;;;;;;;;;;;;;29.07;36.49;101607.09;5069522;28;19927;-56
2022/07/19 09:09:02;;;;;;;;;;;;;;;29.16;39.37;101607.38;5072867;28;19920;-54
2022/07/19 09:11:35;;;;;;;;;;;;;;;29.21;37.32;101609.28;5071335;28;19977;-56
2022/07/19 09:14:07;;;;;;;;;;;;;;;29.32;37.82;101608.22;5060273;28;19924;-60
2022/07/19 09:16:47;;;;;;;;;;;;;;;29.37;38.87;101597.31;5065169;28;20355;-57
2022/07/19 09:19:13;;;;;;;;;;;;;;;29.50;39.11;101608.84;5056224;28;19924;-57
2022/07/19 09:22:12;;;;;;;;;;;;;;;29.60;38.21;101597.88;5065812;28;19923;-58
2022/07/19 09:24:41;;;;;;;;;;;;;;;29.72;37.82;101600.38;5035296;28;20003;-58
2022/07/19 09:27:14;;;;;;;;;;;;;;;29.79;38.98;101594.59;5070520;28;19959;-58
2022/07/19 09:29:47;;;;;;;;;;;;;;;29.84;38.35;101602.00;5057504;28;19968;-57
2022/07/19 09:32:17;;;;;;;;;;;;;;;29.90;38.77;101600.91;5061438;28;19924;-59
2022/07/19 09:34:49;;;;;;;;;;;;;;;29.97;36.65;101597.88;5063506;28;19929;-58
2022/07/19 09:37:14;;;;;;;;;;;;;;;30.05;37.08;101597.34;5071459;28;19924;-59
2022/07/19 09:39:46;;;;;;;;;;;;;;;30.12;37.89;101597.91;5068126;28;19970;-58
2022/07/19 09:42:13;;;;;;;;;;;;;;;30.22;37.68;101590.75;5072149;28;20321;-58
2022/07/19 09:44:38;;;;;;;;;;;;;;;30.33;37.54;101595.09;5066891;28;19927;-58
2022/07/19 09:47:03;;;;;;;;;;;;;;;30.43;33.76;101592.34;5068514;28;20473;-58
2022/07/19 09:49:28;;;;;;;;;;;;;;;30.55;36.35;101589.31;5071095;28;19921;-57
2022/07/19 09:51:54;;;;;;;;;;;;;;;30.66;37.39;101590.06;5085927;28;20022;-58
2022/07/19 09:54:23;;;;;;;;;;;;;;;30.77;35.99;101581.84;5061505;28;19924;-58
2022/07/19 09:56:50;;;;;;;;;;;;;;;30.84;35.80;101580.41;5066874;28;20003;-58
2022/07/19 09:59:15;;;;;;;;;;;;;;;30.91;35.60;101580.13;5062481;28;19921;-58
2022/07/19 10:01:41;;;;;;;;;;;;;;;30.95;36.59;101580.38;5070524;28;20336;-57
2022/07/19 10:04:11;;;;;;;;;;;;;;;31.08;34.62;101573.47;5072845;28;20406;-57
2022/07/19 10:06:37;;;;;;;;;;;;;;;31.17;30.01;101570.94;5064976;28;20795;-58
2022/07/19 10:09:06;;;;;;;;;;;;;;;31.20;34.62;101571.19;5067998;28;19920;-60
2022/07/19 10:11:32;;;;;;;;;;;;;;;31.27;33.99;101577.19;5068883;28;19924;-59
2022/07/19 10:13:58;;;;;;;;;;;;;;;31.33;34.33;101574.41;5067275;28;20428;-64
2022/07/19 10:16:41;;;;;;;;;;;;;;;31.38;32.39;101571.63;5061133;28;19986;-59
2022/07/19 10:19:12;;;;;;;;;;;;;;;31.53;33.45;101574.25;5061234;28;19920;-59
2022/07/19 10:21:38;;;;;;;;;;;;;;;31.66;32.86;101566.44;5055197;28;19948;-58
2022/07/19 10:24:03;;;;;;;;;;;;;;;31.74;29.52;101573.25;5071234;28;20347;-58
2022/07/19 10:26:39;;;;;;;;;;;;;;;31.86;31.71;101572.91;5062932;28;19928;-58
2022/07/19 10:29:08;;;;;;;;;;;;;;;31.97;33.82;101568.13;5057555;28;19924;-57
2022/07/19 10:31:35;;;;;;;;;;;;;;;32.05;32.56;101557.34;5059101;28;19974;-60
2022/07/19 10:34:02;;;;;;;;;;;;;;;32.13;33.25;101553.16;5056278;28;20427;-58
2022/07/19 10:36:31;;;;;;;;;;;;;;;32.19;31.45;101562.13;5057690;28;19920;-58
2022/07/19 10:39:17;;;;;;;;;;;;;;;32.29;28.14;101556.53;5057334;28;19967;-59
2022/07/19 10:42:02;;;;;;;;;;;;;;;32.43;29.25;101555.84;5050157;28;20479;-59
2022/07/19 10:44:27;;;;;;;;;;;;;;;32.51;31.93;101552.44;5058584;28;19939;-58
2022/07/19 10:46:52;;;;;;;;;;;;;;;32.60;30.29;101545.19;5060928;28;20019;-58
2022/07/19 10:49:56;;;;;;;;;;;;;;;32.70;31.09;101548.91;5071999;28;19916;-58
2022/07/19 10:52:27;;;;;;;;;;;;;;;32.79;30.45;101541.63;5005781;28;20025;-59
2022/07/19 10:55:11;;;;;;;;;;;;;;;32.92;30.76;101539.25;4998542;28;20415;-58
2022/07/19 10:57:37;;;;;;;;;;;;;;;33.01;29.60;101543.00;5037472;28;19937;-58
2022/07/19 11:00:15;;;;;;;;;;;;;;;33.08;26.89;101532.44;5059514;28;19925;-57
2022/07/19 11:02:40;;;;;;;;;;;;;;;33.16;27.64;101532.88;5058140;28;19921;-58
2022/07/19 11:05:05;;;;;;;;;;;;;;;33.21;28.61;101530.06;5058597;28;20413;-58
2022/07/19 11:07:30;;;;;;;;;;;;;;;33.29;29.36;101523.84;5057077;28;19929;-59
2022/07/19 11:09:57;;;;;;;;;;;;;;;33.36;29.55;101513.31;5061331;28;19924;-58
2022/07/19 11:12:40;;;;;;;;;;;;;;;33.45;30.00;101523.59;5065570;28;19967;-59
2022/07/19 11:15:07;;;;;;;;;;;;;;;33.55;27.65;101506.97;5062205;28;19982;-59
2022/07/19 11:17:33;;;;;;;;;;;;;;;33.60;27.55;101515.13;5069669;28;19962;-59
2022/07/19 11:20:06;;;;;;;;;;;;;;;33.67;27.88;101514.72;5072737;28;19916;-59
2022/07/19 11:22:32;;;;;;;;;;;;;;;33.73;28.95;101502.50;5066916;28;20398;-59
2022/07/19 11:24:57;;;;;;;;;;;;;;;33.82;28.93;101499.84;5065810;28;20015;-59
2022/07/19 11:27:23;;;;;;;;;;;;;;;33.88;27.58;101501.38;5077690;28;20378;-59
2022/07/19 11:29:52;;;;;;;;;;;;;;;33.99;27.97;101492.94;5070329;28;19922;-59
2022/07/19 11:32:18;;;;;;;;;;;;;;;34.06;25.96;101487.88;5070712;28;20278;-58
2022/07/19 11:34:52;;;;;;;;;;;;;;;34.11;27.09;101485.00;5064097;28;19920;-59
2022/07/19 11:37:22;;;;;;;;;;;;;;;34.17;27.23;101477.44;5069786;28;19921;-60
2022/07/19 11:39:49;;;;;;;;;;;;;;;34.21;27.31;101482.06;5067868;28;19943;-59
2022/07/19 11:42:14;;;;;;;;;;;;;;;34.22;27.96;101480.09;5066426;28;20363;-59
2022/07/19 11:44:40;;;;;;;;;;;;;;;34.30;28.32;101481.31;5062928;28;19974;-58
2022/07/19 11:47:05;;;;;;;;;;;;;;;34.36;26.64;101480.06;5059728;28;19955;-59
2022/07/19 11:49:38;;;;;;;;;;;;;;;34.40;27.23;101469.25;5070209;28;19974;-58
2022/07/19 11:52:03;;;;;;;;;;;;;;;34.43;28.40;101472.22;5067839;28;19943;-57
2022/07/19 11:54:29;;;;;;;;;;;;;;;34.47;24.65;101470.47;5058251;28;19920;-59
2022/07/19 11:56:55;;;;;;;;;;;;;;;34.54;26.15;101469.22;5054340;28;19924;-58
2022/07/19 11:59:20;;;;;;;;;;;;;;;34.64;26.22;101466.28;5060667;28;20311;-58
2022/07/19 12:01:45;;;;;;;;;;;;;;;34.71;25.96;101466.66;5047854;28;19928;-61
2022/07/19 12:04:12;;;;;;;;;;;;;;;34.80;26.51;101471.41;5061150;28;19963;-58
2022/07/19 12:06:37;;;;;;;;;;;;;;;34.90;24.91;101460.13;5056634;28;19924;-58
2022/07/19 12:09:06;;;;;;;;;;;;;;;34.98;26.91;101451.09;5067533;28;19916;-59
2022/07/19 12:11:37;;;;;;;;;;;;;;;35.06;26.97;101452.28;5056580;28;19928;-59
2022/07/19 12:14:15;;;;;;;;;;;;;;;35.13;26.68;101446.38;5065881;28;19974;-59
2022/07/19 12:16:40;;;;;;;;;;;;;;;35.23;26.72;101442.53;5063568;28;19924;-59
2022/07/19 12:19:09;;;;;;;;;;;;;;;35.28;25.74;101443.19;5064263;28;19981;-59
2022/07/19 12:21:36;;;;;;;;;;;;;;;35.37;26.06;101439.69;5063332;28;19932;-60
2022/07/19 12:24:12;;;;;;;;;;;;;;;35.46;24.11;101434.22;5057029;28;20392;-60
2022/07/19 12:26:38;;;;;;;;;;;;;;;35.51;25.69;101434.06;5055088;28;19925;-60
2022/07/19 12:29:24;;;;;;;;;;;;;;;35.53;26.04;101426.28;5062594;28;19928;-59
2022/07/19 12:31:50;;;;;;;;;;;;;;;35.55;21.38;101432.28;5057609;28;20019;-59
2022/07/19 12:34:16;;;;;;;;;;;;;;;35.53;21.79;101421.56;5060513;28;19929;-59